• Join FlightAware (Why Join?)
  • Login
  • US Flag 
07:30PM EDT


 

Airport Tracker/Info


-or-


 

Live Flight TrackerFlight Track Log ✈ AMF9313 ✈ 03-Jul-2014 ✈ KSDF - KMQY

Flight Track Log - Related Links

Times and Time Zones

All times are in EDT time to prevent confusion due to time zone crossing. See the AMF9313 flight status page for this flight to view local times or setup timezone preferences in your user account.

Time Position Orientation Groundspeed Altitude Reporting Facility
EDT Latitude Longitude Course Direction KTS MPH feet Rate Location/Type
07:52PM 38.1867 -85.8428 232° Southwest 166 191 5,800  Level Indianapolis Center
07:53PM 38.1717 -85.8978 251° West 164 189 7,800 1,740 Climbing Indianapolis Center
07:54PM 38.1397 -85.9461 230° Southwest 176 203 9,400 540 Climbing Indianapolis Center
07:56PM 37.9577 -86.1127 232° Southwest  Level FlightAware Approximate
07:57PM 37.9203 -86.1735 232° Southwest  Level FlightAware Approximate
07:57PM 37.9844 -86.1208 222° Southwest 241 277 10,100  Level Indianapolis Center
07:58PM 37.9356 -86.1814 224° Southwest 241 277 10,000 -60 Descending Indianapolis Center
07:59PM 37.8861 -86.2350 221° Southwest 240 276 10,000  Level Indianapolis Center
08:00PM 37.8214 -86.2506 191° South 238 274 10,000  Level Indianapolis Center
08:01PM 37.7561 -86.2675 192° South 237 273 10,000  Level Indianapolis Center
08:03PM 37.6261 -86.2917 188° South 236 272 10,000  Level Memphis Center
08:04PM 37.5617 -86.3036 188° South 235 270 10,000  Level Indianapolis Center
08:05PM 37.4961 -86.3128 186° South 234 269 10,000  Level Indianapolis Center
08:06PM 37.4308 -86.3231 187° South 235 270 10,000  Level Indianapolis Center
08:07PM 37.3533 -86.3372 188° South 235 270 10,000  Level Indianapolis Center
08:08PM 37.2867 -86.3508 189° South 236 272 10,000  Level Indianapolis Center
08:09PM 37.2181 -86.3636 188° South 240 276 10,000  Level Memphis Center
08:10PM 37.1536 -86.3881 197° South 241 277 10,000 -240 Level Indianapolis Center
08:11PM 37.0897 -86.4119 197° South 240 276 9,600 -600 Descending Indianapolis Center
08:13PM 36.9614 -86.4492 182° South 237 273 8,200 -540 Descending Indianapolis Center
08:14PM 36.8947 -86.4600 187° South 236 272 8,100 -60 Descending Memphis Center
08:15PM 36.8267 -86.4761 191° South 241 277 8,100  Level Memphis Center
08:16PM 36.7478 -86.4928 190° South 241 277 8,100  Level Memphis Center
08:17PM 36.6789 -86.5089 191° South 244 281 8,100 -360 Level Memphis Center
08:19PM 36.5442 -86.5328 188° South 244 281 7,100 -720 Descending Memphis Center
08:21PM 36.4167 -86.5333 180° South 232 267 5,400 -900 Descending Nashville TRACON
08:22PM 36.3508 -86.5147 167° South 230 265 4,500 -780 Descending Memphis Center
08:25PM 36.2292 -86.4686 163° South 229 264 3,000 -660 Descending Memphis Center
08:26PM 36.1692 -86.4642 177° South 221 254 2,600 -300 Descending Memphis Center
08:27PM 36.1111 -86.4636 180° South 213 245 2,500 -60 Descending Memphis Center
08:28PM 36.0572 -86.4475 166° South 201 231 2,500 -240 Level Memphis Center
08:29PM 36.0067 -86.4497 182° South 186 214 2,100 -420 Descending Memphis Center
08:31PM 36.0000 -86.5167 191° South  Level FlightAware Approximate
08:38PM 36.0090 -86.5201 343° North  Level Estimated
08:39PM 36.0090 -86.5201 191° South  Level Estimated